sensor_id;sensor_type;location;lat;lon;timestamp;temperature;humidity
41437;DHT22;27178;49.460;10.850;2023-08-20T00:01:40;29.30;67.90
41437;DHT22;27178;49.460;10.850;2023-08-20T00:04:11;29.30;67.20
41437;DHT22;27178;49.460;10.850;2023-08-20T00:06:41;29.20;67.40
41437;DHT22;27178;49.460;10.850;2023-08-20T00:09:09;29.50;67.50
41437;DHT22;27178;49.460;10.850;2023-08-20T00:11:38;29.20;67.30
41437;DHT22;27178;49.460;10.850;2023-08-20T00:14:06;29.20;67.60
41437;DHT22;27178;49.460;10.850;2023-08-20T00:16:35;29.20;67.40
41437;DHT22;27178;49.460;10.850;2023-08-20T00:19:04;29.20;67.60
41437;DHT22;27178;49.460;10.850;2023-08-20T00:21:38;29.20;67.60
41437;DHT22;27178;49.460;10.850;2023-08-20T00:24:09;29.10;67.70
41437;DHT22;27178;49.460;10.850;2023-08-20T00:26:37;29.10;67.70
41437;DHT22;27178;49.460;10.850;2023-08-20T00:29:06;29.10;67.90
41437;DHT22;27178;49.460;10.850;2023-08-20T00:31:34;29.10;68.00
41437;DHT22;27178;49.460;10.850;2023-08-20T00:34:03;29.10;67.90
41437;DHT22;27178;49.460;10.850;2023-08-20T00:36:35;29.10;68.10
41437;DHT22;27178;49.460;10.850;2023-08-20T00:39:03;29.00;68.10
41437;DHT22;27178;49.460;10.850;2023-08-20T00:41:32;29.00;68.20
41437;DHT22;27178;49.460;10.850;2023-08-20T00:44:00;29.00;68.30
41437;DHT22;27178;49.460;10.850;2023-08-20T00:46:30;29.00;68.30
41437;DHT22;27178;49.460;10.850;2023-08-20T00:49:00;29.00;68.40
41437;DHT22;27178;49.460;10.850;2023-08-20T00:51:28;29.00;68.30
41437;DHT22;27178;49.460;10.850;2023-08-20T00:53:59;29.00;68.40
41437;DHT22;27178;49.460;10.850;2023-08-20T00:56:27;29.00;68.40
41437;DHT22;27178;49.460;10.850;2023-08-20T00:58:57;29.00;68.40
41437;DHT22;27178;49.460;10.850;2023-08-20T01:01:26;28.90;68.40
41437;DHT22;27178;49.460;10.850;2023-08-20T01:03:54;28.90;68.60
41437;DHT22;27178;49.460;10.850;2023-08-20T01:06:29;28.90;68.70
41437;DHT22;27178;49.460;10.850;2023-08-20T01:09:10;28.90;69.10
41437;DHT22;27178;49.460;10.850;2023-08-20T01:11:46;28.80;69.00
41437;DHT22;27178;49.460;10.850;2023-08-20T01:14:18;28.80;68.80
41437;DHT22;27178;49.460;10.850;2023-08-20T01:16:46;28.80;68.70
41437;DHT22;27178;49.460;10.850;2023-08-20T01:19:17;28.80;68.70
41437;DHT22;27178;49.460;10.850;2023-08-20T01:21:53;28.70;68.80
41437;DHT22;27178;49.460;10.850;2023-08-20T01:24:38;28.70;68.80
41437;DHT22;27178;49.460;10.850;2023-08-20T01:27:30;28.70;68.70
41437;DHT22;27178;49.460;10.850;2023-08-20T01:30:06;28.70;68.80
41437;DHT22;27178;49.460;10.850;2023-08-20T01:32:35;28.70;68.40
41437;DHT22;27178;49.460;10.850;2023-08-20T01:35:04;28.70;68.50
41437;DHT22;27178;49.460;10.850;2023-08-20T01:37:33;28.60;68.30
41437;DHT22;27178;49.460;10.850;2023-08-20T01:40:02;28.60;68.30
41437;DHT22;27178;49.460;10.850;2023-08-20T01:42:34;28.60;68.30
41437;DHT22;27178;49.460;10.850;2023-08-20T01:45:02;28.50;68.20
41437;DHT22;27178;49.460;10.850;2023-08-20T01:47:32;28.60;68.50
41437;DHT22;27178;49.460;10.850;2023-08-20T01:50:02;28.50;68.50
41437;DHT22;27178;49.460;10.850;2023-08-20T01:52:33;28.50;68.50
41437;DHT22;27178;49.460;10.850;2023-08-20T01:55:03;28.50;68.50
41437;DHT22;27178;49.460;10.850;2023-08-20T01:57:31;28.50;68.60
41437;DHT22;27178;49.460;10.850;2023-08-20T02:00:00;28.40;68.50
41437;DHT22;27178;49.460;10.850;2023-08-20T02:02:32;28.40;68.50
41437;DHT22;27178;49.460;10.850;2023-08-20T02:05:01;28.40;68.30
41437;DHT22;27178;49.460;10.850;2023-08-20T02:07:30;28.40;68.30
41437;DHT22;27178;49.460;10.850;2023-08-20T02:09:59;28.30;68.40
41437;DHT22;27178;49.460;10.850;2023-08-20T02:12:28;28.30;68.50
41437;DHT22;27178;49.460;10.850;2023-08-20T02:14:56;28.30;68.60
41437;DHT22;27178;49.460;10.850;2023-08-20T02:17:25;28.30;68.70
41437;DHT22;27178;49.460;10.850;2023-08-20T02:19:56;28.30;68.60
41437;DHT22;27178;49.460;10.850;2023-08-20T02:22:24;28.20;68.50
41437;DHT22;27178;49.460;10.850;2023-08-20T02:24:53;28.20;68.60
41437;DHT22;27178;49.460;10.850;2023-08-20T02:27:21;28.20;68.60
41437;DHT22;27178;49.460;10.850;2023-08-20T02:29:50;28.20;68.60
41437;DHT22;27178;49.460;10.850;2023-08-20T02:32:19;28.10;68.60
41437;DHT22;27178;49.460;10.850;2023-08-20T02:34:49;28.10;68.70
41437;DHT22;27178;49.460;10.850;2023-08-20T02:37:19;28.10;69.00
41437;DHT22;27178;49.460;10.850;2023-08-20T02:39:47;28.10;69.00
41437;DHT22;27178;49.460;10.850;2023-08-20T02:42:16;28.10;69.10
41437;DHT22;27178;49.460;10.850;2023-08-20T02:44:44;28.10;69.10
41437;DHT22;27178;49.460;10.850;2023-08-20T02:47:13;28.10;69.10
41437;DHT22;27178;49.460;10.850;2023-08-20T02:49:41;28.00;69.10
41437;DHT22;27178;49.460;10.850;2023-08-20T02:52:10;28.00;69.20
41437;DHT22;27178;49.460;10.850;2023-08-20T02:54:40;28.00;69.40
41437;DHT22;27178;49.460;10.850;2023-08-20T02:57:08;28.00;69.60
41437;DHT22;27178;49.460;10.850;2023-08-20T02:59:37;28.00;69.70
41437;DHT22;27178;49.460;10.850;2023-08-20T03:02:05;28.00;69.80
41437;DHT22;27178;49.460;10.850;2023-08-20T03:04:34;28.00;69.70
41437;DHT22;27178;49.460;10.850;2023-08-20T03:07:03;27.90;69.80
41437;DHT22;27178;49.460;10.850;2023-08-20T03:09:31;27.90;69.70
41437;DHT22;27178;49.460;10.850;2023-08-20T03:12:01;27.90;69.70
41437;DHT22;27178;49.460;10.850;2023-08-20T03:14:30;27.90;69.70
41437;DHT22;27178;49.460;10.850;2023-08-20T03:16:58;27.90;69.80
41437;DHT22;27178;49.460;10.850;2023-08-20T03:19:32;27.90;69.80
41437;DHT22;27178;49.460;10.850;2023-08-20T03:22:00;27.90;70.00
41437;DHT22;27178;49.460;10.850;2023-08-20T03:24:29;27.90;70.00
41437;DHT22;27178;49.460;10.850;2023-08-20T03:26:58;27.80;69.70
41437;DHT22;27178;49.460;10.850;2023-08-20T03:29:28;27.80;69.80
41437;DHT22;27178;49.460;10.850;2023-08-20T03:31:56;27.80;70.00
41437;DHT22;27178;49.460;10.850;2023-08-20T03:34:24;27.80;70.10
41437;DHT22;27178;49.460;10.850;2023-08-20T03:36:53;27.70;70.20
41437;DHT22;27178;49.460;10.850;2023-08-20T03:39:22;27.70;70.40
41437;DHT22;27178;49.460;10.850;2023-08-20T03:41:51;27.60;70.50
41437;DHT22;27178;49.460;10.850;2023-08-20T03:44:20;27.60;70.60
41437;DHT22;27178;49.460;10.850;2023-08-20T03:46:50;27.50;70.70
41437;DHT22;27178;49.460;10.850;2023-08-20T03:49:18;27.60;71.00
41437;DHT22;27178;49.460;10.850;2023-08-20T03:51:46;27.60;71.10
41437;DHT22;27178;49.460;10.850;2023-08-20T03:54:30;27.50;71.10
41437;DHT22;27178;49.460;10.850;2023-08-20T03:56:58;27.50;71.60
41437;DHT22;27178;49.460;10.850;2023-08-20T03:59:27;27.50;71.30
41437;DHT22;27178;49.460;10.850;2023-08-20T04:01:57;27.40;71.30
41437;DHT22;27178;49.460;10.850;2023-08-20T04:04:26;27.40;71.60
41437;DHT22;27178;49.460;10.850;2023-08-20T04:06:55;27.40;71.70
41437;DHT22;27178;49.460;10.850;2023-08-20T04:09:23;27.40;71.80
41437;DHT22;27178;49.460;10.850;2023-08-20T04:11:52;27.40;71.90
41437;DHT22;27178;49.460;10.850;2023-08-20T04:14:20;27.40;71.90
41437;DHT22;27178;49.460;10.850;2023-08-20T04:16:49;27.40;72.10
41437;DHT22;27178;49.460;10.850;2023-08-20T04:19:19;27.40;72.10
41437;DHT22;27178;49.460;10.850;2023-08-20T04:21:47;27.40;72.30
41437;DHT22;27178;49.460;10.850;2023-08-20T04:24:16;27.40;72.20
41437;DHT22;27178;49.460;10.850;2023-08-20T04:26:45;27.40;72.30
41437;DHT22;27178;49.460;10.850;2023-08-20T04:29:13;27.40;72.40
41437;DHT22;27178;49.460;10.850;2023-08-20T04:31:41;27.40;72.60
41437;DHT22;27178;49.460;10.850;2023-08-20T04:34:10;27.40;72.50
41437;DHT22;27178;49.460;10.850;2023-08-20T04:36:40;27.40;72.50
41437;DHT22;27178;49.460;10.850;2023-08-20T04:39:08;27.40;72.60
41437;DHT22;27178;49.460;10.850;2023-08-20T04:41:37;27.40;72.50
41437;DHT22;27178;49.460;10.850;2023-08-20T04:44:05;27.40;72.50
41437;DHT22;27178;49.460;10.850;2023-08-20T04:46:34;27.40;72.40
41437;DHT22;27178;49.460;10.850;2023-08-20T04:49:02;27.40;72.60
41437;DHT22;27178;49.460;10.850;2023-08-20T04:51:30;27.40;72.60
41437;DHT22;27178;49.460;10.850;2023-08-20T04:54:00;27.30;72.60
41437;DHT22;27178;49.460;10.850;2023-08-20T04:56:29;27.30;72.70
41437;DHT22;27178;49.460;10.850;2023-08-20T04:58:57;27.30;72.80
41437;DHT22;27178;49.460;10.850;2023-08-20T05:01:26;27.30;72.80
41437;DHT22;27178;49.460;10.850;2023-08-20T05:03:55;27.30;72.80
41437;DHT22;27178;49.460;10.850;2023-08-20T05:06:23;27.20;72.90
41437;DHT22;27178;49.460;10.850;2023-08-20T05:08:51;27.20;73.00
41437;DHT22;27178;49.460;10.850;2023-08-20T05:11:21;27.20;73.10
41437;DHT22;27178;49.460;10.850;2023-08-20T05:13:50;27.20;73.30
41437;DHT22;27178;49.460;10.850;2023-08-20T05:16:18;27.20;73.30
41437;DHT22;27178;49.460;10.850;2023-08-20T05:18:47;27.20;73.30
41437;DHT22;27178;49.460;10.850;2023-08-20T05:21:16;27.20;73.50
41437;DHT22;27178;49.460;10.850;2023-08-20T05:23:44;27.20;73.40
41437;DHT22;27178;49.460;10.850;2023-08-20T05:26:13;27.20;73.50
41437;DHT22;27178;49.460;10.850;2023-08-20T05:28:43;27.30;73.60
41437;DHT22;27178;49.460;10.850;2023-08-20T05:31:11;27.30;73.70
41437;DHT22;27178;49.460;10.850;2023-08-20T05:33:40;27.30;73.70
41437;DHT22;27178;49.460;10.850;2023-08-20T05:36:08;27.30;73.70
41437;DHT22;27178;49.460;10.850;2023-08-20T05:38:37;27.30;73.90
41437;DHT22;27178;49.460;10.850;2023-08-20T05:41:05;27.30;74.00
41437;DHT22;27178;49.460;10.850;2023-08-20T05:43:34;27.30;74.00
41437;DHT22;27178;49.460;10.850;2023-08-20T05:46:04;27.20;74.00
41437;DHT22;27178;49.460;10.850;2023-08-20T05:48:33;27.30;74.30
41437;DHT22;27178;49.460;10.850;2023-08-20T05:51:01;27.30;74.10
41437;DHT22;27178;49.460;10.850;2023-08-20T05:53:30;27.20;74.20
41437;DHT22;27178;49.460;10.850;2023-08-20T05:55:58;27.30;74.40
41437;DHT22;27178;49.460;10.850;2023-08-20T05:58:26;27.30;74.50
41437;DHT22;27178;49.460;10.850;2023-08-20T06:00:55;27.30;74.50
41437;DHT22;27178;49.460;10.850;2023-08-20T06:03:24;27.30;74.70
41437;DHT22;27178;49.460;10.850;2023-08-20T06:05:53;27.30;74.70
41437;DHT22;27178;49.460;10.850;2023-08-20T06:08:21;27.30;74.70
41437;DHT22;27178;49.460;10.850;2023-08-20T06:10:50;27.40;74.70
41437;DHT22;27178;49.460;10.850;2023-08-20T06:13:18;27.40;75.00
41437;DHT22;27178;49.460;10.850;2023-08-20T06:15:47;27.40;74.50
41437;DHT22;27178;49.460;10.850;2023-08-20T06:18:15;27.40;74.40
41437;DHT22;27178;49.460;10.850;2023-08-20T06:20:45;27.40;74.30
41437;DHT22;27178;49.460;10.850;2023-08-20T06:23:13;27.40;74.30
41437;DHT22;27178;49.460;10.850;2023-08-20T06:26:02;27.40;75.20
41437;DHT22;27178;49.460;10.850;2023-08-20T06:28:30;27.40;74.30
41437;DHT22;27178;49.460;10.850;2023-08-20T06:30:58;27.40;74.30
41437;DHT22;27178;49.460;10.850;2023-08-20T06:33:27;27.40;74.30
41437;DHT22;27178;49.460;10.850;2023-08-20T06:35:56;27.50;74.30
41437;DHT22;27178;49.460;10.850;2023-08-20T06:38:25;27.50;74.40
41437;DHT22;27178;49.460;10.850;2023-08-20T06:40:53;27.50;74.50
41437;DHT22;27178;49.460;10.850;2023-08-20T06:43:22;27.50;74.60
41437;DHT22;27178;49.460;10.850;2023-08-20T06:45:51;27.50;74.50
41437;DHT22;27178;49.460;10.850;2023-08-20T06:48:19;27.50;74.70
41437;DHT22;27178;49.460;10.850;2023-08-20T06:50:49;27.60;74.60
41437;DHT22;27178;49.460;10.850;2023-08-20T06:53:19;27.60;74.50
41437;DHT22;27178;49.460;10.850;2023-08-20T06:55:47;27.60;74.50
41437;DHT22;27178;49.460;10.850;2023-08-20T06:58:16;27.60;74.50
41437;DHT22;27178;49.460;10.850;2023-08-20T07:00:45;27.60;74.40
41437;DHT22;27178;49.460;10.850;2023-08-20T07:03:13;27.60;74.50
41437;DHT22;27178;49.460;10.850;2023-08-20T07:05:42;27.60;74.60
41437;DHT22;27178;49.460;10.850;2023-08-20T07:08:10;27.70;74.70
41437;DHT22;27178;49.460;10.850;2023-08-20T07:10:40;27.60;74.60
41437;DHT22;27178;49.460;10.850;2023-08-20T07:13:08;27.70;74.60
41437;DHT22;27178;49.460;10.850;2023-08-20T07:15:37;27.70;74.60
41437;DHT22;27178;49.460;10.850;2023-08-20T07:18:05;27.70;74.70
41437;DHT22;27178;49.460;10.850;2023-08-20T07:20:34;27.70;74.60
41437;DHT22;27178;49.460;10.850;2023-08-20T07:23:02;27.70;74.60
41437;DHT22;27178;49.460;10.850;2023-08-20T07:25:31;27.70;74.60
41437;DHT22;27178;49.460;10.850;2023-08-20T07:28:01;27.80;74.60
41437;DHT22;27178;49.460;10.850;2023-08-20T07:30:29;27.80;74.50
41437;DHT22;27178;49.460;10.850;2023-08-20T07:32:58;27.70;74.40
41437;DHT22;27178;49.460;10.850;2023-08-20T07:35:31;27.50;75.90
41437;DHT22;27178;49.460;10.850;2023-08-20T07:38:00;27.60;75.40
41437;DHT22;27178;49.460;10.850;2023-08-20T07:40:28;27.70;75.10
41437;DHT22;27178;49.460;10.850;2023-08-20T07:43:01;27.80;75.00
41437;DHT22;27178;49.460;10.850;2023-08-20T07:45:30;27.80;74.70
41437;DHT22;27178;49.460;10.850;2023-08-20T07:47:59;27.90;74.60
41437;DHT22;27178;49.460;10.850;2023-08-20T07:50:27;27.90;74.60
41437;DHT22;27178;49.460;10.850;2023-08-20T07:52:56;28.00;74.40
41437;DHT22;27178;49.460;10.850;2023-08-20T07:55:25;28.00;74.20
41437;DHT22;27178;49.460;10.850;2023-08-20T07:57:53;28.00;74.30
41437;DHT22;27178;49.460;10.850;2023-08-20T08:00:23;28.10;74.30
41437;DHT22;27178;49.460;10.850;2023-08-20T08:02:52;28.10;74.10
41437;DHT22;27178;49.460;10.850;2023-08-20T08:05:20;28.20;74.20
41437;DHT22;27178;49.460;10.850;2023-08-20T08:07:49;28.20;74.20
41437;DHT22;27178;49.460;10.850;2023-08-20T08:10:17;28.30;74.20
41437;DHT22;27178;49.460;10.850;2023-08-20T08:12:46;28.30;74.10
41437;DHT22;27178;49.460;10.850;2023-08-20T08:15:14;28.40;74.00
41437;DHT22;27178;49.460;10.850;2023-08-20T08:17:45;28.40;73.90
41437;DHT22;27178;49.460;10.850;2023-08-20T08:20:13;28.40;73.70
41437;DHT22;27178;49.460;10.850;2023-08-20T08:22:42;28.40;73.60
41437;DHT22;27178;49.460;10.850;2023-08-20T08:25:10;28.50;73.70
41437;DHT22;27178;49.460;10.850;2023-08-20T08:27:41;28.50;73.60
41437;DHT22;27178;49.460;10.850;2023-08-20T08:30:25;28.50;73.60
41437;DHT22;27178;49.460;10.850;2023-08-20T08:32:55;28.60;73.40
41437;DHT22;27178;49.460;10.850;2023-08-20T08:35:24;28.60;73.20
41437;DHT22;27178;49.460;10.850;2023-08-20T08:37:52;28.70;73.10
41437;DHT22;27178;49.460;10.850;2023-08-20T08:40:21;28.70;73.10
41437;DHT22;27178;49.460;10.850;2023-08-20T08:42:50;28.70;73.00
41437;DHT22;27178;49.460;10.850;2023-08-20T08:45:18;28.80;72.90
41437;DHT22;27178;49.460;10.850;2023-08-20T08:47:47;28.80;72.80
41437;DHT22;27178;49.460;10.850;2023-08-20T08:50:19;28.80;72.70
41437;DHT22;27178;49.460;10.850;2023-08-20T08:52:51;28.90;72.60
41437;DHT22;27178;49.460;10.850;2023-08-20T08:55:20;28.90;72.40
41437;DHT22;27178;49.460;10.850;2023-08-20T08:57:48;28.90;72.30
41437;DHT22;27178;49.460;10.850;2023-08-20T09:00:17;29.00;72.20
41437;DHT22;27178;49.460;10.850;2023-08-20T09:02:48;29.00;72.10
41437;DHT22;27178;49.460;10.850;2023-08-20T09:05:19;29.10;72.00
41437;DHT22;27178;49.460;10.850;2023-08-20T09:07:47;29.00;71.90
41437;DHT22;27178;49.460;10.850;2023-08-20T09:10:24;29.10;71.90
41437;DHT22;27178;49.460;10.850;2023-08-20T09:12:54;29.20;72.00
41437;DHT22;27178;49.460;10.850;2023-08-20T09:15:31;29.20;72.00
41437;DHT22;27178;49.460;10.850;2023-08-20T09:18:01;29.20;71.70
41437;DHT22;27178;49.460;10.850;2023-08-20T09:20:37;29.30;71.70
41437;DHT22;27178;49.460;10.850;2023-08-20T09:23:11;29.30;71.40
41437;DHT22;27178;49.460;10.850;2023-08-20T09:25:40;29.30;71.50
41437;DHT22;27178;49.460;10.850;2023-08-20T09:28:09;29.30;71.40
41437;DHT22;27178;49.460;10.850;2023-08-20T09:30:37;29.40;71.40
41437;DHT22;27178;49.460;10.850;2023-08-20T09:33:10;29.40;71.30
41437;DHT22;27178;49.460;10.850;2023-08-20T09:35:48;29.40;71.10
41437;DHT22;27178;49.460;10.850;2023-08-20T09:38:20;29.50;71.00
41437;DHT22;27178;49.460;10.850;2023-08-20T09:40:49;29.50;70.90
41437;DHT22;27178;49.460;10.850;2023-08-20T09:43:23;29.50;70.80
41437;DHT22;27178;49.460;10.850;2023-08-20T09:45:54;29.60;70.50
41437;DHT22;27178;49.460;10.850;2023-08-20T09:48:25;29.60;70.40
41437;DHT22;27178;49.460;10.850;2023-08-20T09:51:04;29.60;70.40
41437;DHT22;27178;49.460;10.850;2023-08-20T09:53:44;29.70;70.00
41437;DHT22;27178;49.460;10.850;2023-08-20T09:56:18;29.70;69.70
41437;DHT22;27178;49.460;10.850;2023-08-20T09:58:50;29.80;69.90
41437;DHT22;27178;49.460;10.850;2023-08-20T10:01:19;29.90;69.20
41437;DHT22;27178;49.460;10.850;2023-08-20T10:04:00;29.90;69.20
41437;DHT22;27178;49.460;10.850;2023-08-20T10:06:33;30.00;68.70
41437;DHT22;27178;49.460;10.850;2023-08-20T10:09:01;30.00;68.60
41437;DHT22;27178;49.460;10.850;2023-08-20T10:11:30;30.10;68.60
41437;DHT22;27178;49.460;10.850;2023-08-20T10:13:59;30.10;68.40
41437;DHT22;27178;49.460;10.850;2023-08-20T10:16:27;30.20;67.80
41437;DHT22;27178;49.460;10.850;2023-08-20T10:19:02;30.30;66.10
41437;DHT22;27178;49.460;10.850;2023-08-20T10:21:32;30.30;66.80
41437;DHT22;27178;49.460;10.850;2023-08-20T10:24:03;30.40;67.00
41437;DHT22;27178;49.460;10.850;2023-08-20T10:26:33;30.50;66.90
41437;DHT22;27178;49.460;10.850;2023-08-20T10:29:34;30.50;66.70
41437;DHT22;27178;49.460;10.850;2023-08-20T10:32:08;30.60;66.20
41437;DHT22;27178;49.460;10.850;2023-08-20T10:34:37;30.60;67.00
41437;DHT22;27178;49.460;10.850;2023-08-20T10:37:10;30.60;66.80
41437;DHT22;27178;49.460;10.850;2023-08-20T10:39:40;30.70;66.60
41437;DHT22;27178;49.460;10.850;2023-08-20T10:42:21;30.70;66.60
41437;DHT22;27178;49.460;10.850;2023-08-20T10:44:59;30.80;66.40
41437;DHT22;27178;49.460;10.850;2023-08-20T10:47:42;30.90;66.20
41437;DHT22;27178;49.460;10.850;2023-08-20T10:50:15;30.90;65.60
41437;DHT22;27178;49.460;10.850;2023-08-20T10:52:49;31.00;65.90
41437;DHT22;27178;49.460;10.850;2023-08-20T10:55:22;31.00;65.50
41437;DHT22;27178;49.460;10.850;2023-08-20T10:57:55;31.10;65.40
41437;DHT22;27178;49.460;10.850;2023-08-20T11:00:24;31.20;65.60
41437;DHT22;27178;49.460;10.850;2023-08-20T11:02:53;31.30;65.50
41437;DHT22;27178;49.460;10.850;2023-08-20T11:05:21;31.40;65.50
41437;DHT22;27178;49.460;10.850;2023-08-20T11:07:51;31.40;64.90
41437;DHT22;27178;49.460;10.850;2023-08-20T11:10:19;31.50;64.60
41437;DHT22;27178;49.460;10.850;2023-08-20T11:12:48;31.60;64.10
41437;DHT22;27178;49.460;10.850;2023-08-20T11:15:17;31.70;63.90
41437;DHT22;27178;49.460;10.850;2023-08-20T11:17:46;31.70;63.60
41437;DHT22;27178;49.460;10.850;2023-08-20T11:20:17;31.80;63.40
41437;DHT22;27178;49.460;10.850;2023-08-20T11:22:46;31.80;63.40
41437;DHT22;27178;49.460;10.850;2023-08-20T11:25:15;31.90;63.10
41437;DHT22;27178;49.460;10.850;2023-08-20T11:27:44;32.00;62.60
41437;DHT22;27178;49.460;10.850;2023-08-20T11:30:13;32.00;62.60
41437;DHT22;27178;49.460;10.850;2023-08-20T11:32:42;32.10;62.60
41437;DHT22;27178;49.460;10.850;2023-08-20T11:35:12;32.20;62.70
41437;DHT22;27178;49.460;10.850;2023-08-20T11:37:41;32.30;63.00
41437;DHT22;27178;49.460;10.850;2023-08-20T11:40:09;32.40;62.60
41437;DHT22;27178;49.460;10.850;2023-08-20T11:42:40;32.50;62.40
41437;DHT22;27178;49.460;10.850;2023-08-20T11:45:10;32.60;62.00
41437;DHT22;27178;49.460;10.850;2023-08-20T11:47:39;32.70;61.80
41437;DHT22;27178;49.460;10.850;2023-08-20T11:50:09;32.80;61.50
41437;DHT22;27178;49.460;10.850;2023-08-20T11:52:54;32.90;61.20
41437;DHT22;27178;49.460;10.850;2023-08-20T11:55:30;33.00;60.90
41437;DHT22;27178;49.460;10.850;2023-08-20T11:57:59;33.00;61.00
41437;DHT22;27178;49.460;10.850;2023-08-20T12:00:30;33.10;60.90
41437;DHT22;27178;49.460;10.850;2023-08-20T12:02:58;33.20;60.50
41437;DHT22;27178;49.460;10.850;2023-08-20T12:05:27;33.30;60.50
41437;DHT22;27178;49.460;10.850;2023-08-20T12:07:56;33.40;60.50
41437;DHT22;27178;49.460;10.850;2023-08-20T12:10:32;33.50;59.10
41437;DHT22;27178;49.460;10.850;2023-08-20T12:13:02;33.60;58.70
41437;DHT22;27178;49.460;10.850;2023-08-20T12:15:30;33.70;59.40
41437;DHT22;27178;49.460;10.850;2023-08-20T12:18:00;33.80;59.10
41437;DHT22;27178;49.460;10.850;2023-08-20T12:20:29;33.90;58.10
41437;DHT22;27178;49.460;10.850;2023-08-20T12:22:59;34.00;58.90
41437;DHT22;27178;49.460;10.850;2023-08-20T12:25:30;34.10;58.90
41437;DHT22;27178;49.460;10.850;2023-08-20T12:28:01;34.10;58.50
41437;DHT22;27178;49.460;10.850;2023-08-20T12:30:30;34.20;56.90
41437;DHT22;27178;49.460;10.850;2023-08-20T12:33:03;34.40;57.60
41437;DHT22;27178;49.460;10.850;2023-08-20T12:35:31;34.40;58.00
41437;DHT22;27178;49.460;10.850;2023-08-20T12:38:00;34.60;58.10
41437;DHT22;27178;49.460;10.850;2023-08-20T12:40:28;34.70;57.30
41437;DHT22;27178;49.460;10.850;2023-08-20T12:42:56;34.70;56.60
41437;DHT22;27178;49.460;10.850;2023-08-20T12:45:26;34.80;56.70
41437;DHT22;27178;49.460;10.850;2023-08-20T12:55:32;35.10;56.50
41437;DHT22;27178;49.460;10.850;2023-08-20T12:58:00;35.20;56.60
41437;DHT22;27178;49.460;10.850;2023-08-20T13:00:31;35.30;56.40
41437;DHT22;27178;49.460;10.850;2023-08-20T13:03:00;35.30;56.10
41437;DHT22;27178;49.460;10.850;2023-08-20T13:05:29;35.40;56.20
41437;DHT22;27178;49.460;10.850;2023-08-20T13:07:58;35.50;56.00
41437;DHT22;27178;49.460;10.850;2023-08-20T13:10:27;35.60;54.80
41437;DHT22;27178;49.460;10.850;2023-08-20T13:13:00;35.60;55.10
41437;DHT22;27178;49.460;10.850;2023-08-20T13:15:31;35.80;54.20
41437;DHT22;27178;49.460;10.850;2023-08-20T13:18:03;35.80;55.00
41437;DHT22;27178;49.460;10.850;2023-08-20T13:20:31;35.90;55.10
41437;DHT22;27178;49.460;10.850;2023-08-20T13:23:00;36.10;54.40
41437;DHT22;27178;49.460;10.850;2023-08-20T13:25:29;36.10;54.60
41437;DHT22;27178;49.460;10.850;2023-08-20T13:27:57;36.20;54.30
41437;DHT22;27178;49.460;10.850;2023-08-20T13:30:26;36.30;54.40
41437;DHT22;27178;49.460;10.850;2023-08-20T13:32:55;36.40;53.50
41437;DHT22;27178;49.460;10.850;2023-08-20T13:35:24;36.50;53.50
41437;DHT22;27178;49.460;10.850;2023-08-20T13:37:52;36.60;52.90
41437;DHT22;27178;49.460;10.850;2023-08-20T13:40:24;36.70;53.10
41437;DHT22;27178;49.460;10.850;2023-08-20T13:42:53;36.80;52.80
41437;DHT22;27178;49.460;10.850;2023-08-20T13:45:21;36.90;52.20
41437;DHT22;27178;49.460;10.850;2023-08-20T13:47:50;37.00;52.60
41437;DHT22;27178;49.460;10.850;2023-08-20T13:50:20;37.10;52.50
41437;DHT22;27178;49.460;10.850;2023-08-20T13:52:48;37.20;52.40
41437;DHT22;27178;49.460;10.850;2023-08-20T13:55:41;37.30;52.50
41437;DHT22;27178;49.460;10.850;2023-08-20T13:58:10;37.30;52.20
41437;DHT22;27178;49.460;10.850;2023-08-20T14:00:40;37.40;51.90
41437;DHT22;27178;49.460;10.850;2023-08-20T14:03:08;37.50;52.00
41437;DHT22;27178;49.460;10.850;2023-08-20T14:05:38;37.60;51.90
41437;DHT22;27178;49.460;10.850;2023-08-20T14:08:07;37.70;51.40
41437;DHT22;27178;49.460;10.850;2023-08-20T14:10:36;37.80;51.30
41437;DHT22;27178;49.460;10.850;2023-08-20T14:13:05;37.90;51.00
41437;DHT22;27178;49.460;10.850;2023-08-20T14:15:33;37.90;51.10
41437;DHT22;27178;49.460;10.850;2023-08-20T14:18:03;38.00;49.90
41437;DHT22;27178;49.460;10.850;2023-08-20T14:20:34;38.10;50.30
41437;DHT22;27178;49.460;10.850;2023-08-20T14:23:05;38.20;50.60
41437;DHT22;27178;49.460;10.850;2023-08-20T14:25:33;38.30;50.10
41437;DHT22;27178;49.460;10.850;2023-08-20T14:28:02;38.30;50.10
41437;DHT22;27178;49.460;10.850;2023-08-20T14:30:31;38.40;50.20
41437;DHT22;27178;49.460;10.850;2023-08-20T14:32:59;38.50;50.00
41437;DHT22;27178;49.460;10.850;2023-08-20T14:35:27;38.60;50.10
41437;DHT22;27178;49.460;10.850;2023-08-20T14:37:56;38.60;49.60
41437;DHT22;27178;49.460;10.850;2023-08-20T14:40:26;38.70;49.70
41437;DHT22;27178;49.460;10.850;2023-08-20T14:42:55;38.70;49.10
41437;DHT22;27178;49.460;10.850;2023-08-20T14:45:23;38.80;49.00
41437;DHT22;27178;49.460;10.850;2023-08-20T14:47:52;38.90;49.10
41437;DHT22;27178;49.460;10.850;2023-08-20T14:50:20;38.90;49.00
41437;DHT22;27178;49.460;10.850;2023-08-20T14:52:49;39.00;47.70
41437;DHT22;27178;49.460;10.850;2023-08-20T14:55:19;39.00;48.00
41437;DHT22;27178;49.460;10.850;2023-08-20T14:57:49;39.00;47.40
41437;DHT22;27178;49.460;10.850;2023-08-20T15:00:18;39.00;47.90
41437;DHT22;27178;49.460;10.850;2023-08-20T15:02:47;39.10;48.10
41437;DHT22;27178;49.460;10.850;2023-08-20T15:05:16;39.10;46.70
41437;DHT22;27178;49.460;10.850;2023-08-20T15:07:44;39.10;47.10
41437;DHT22;27178;49.460;10.850;2023-08-20T15:10:13;39.10;47.40
41437;DHT22;27178;49.460;10.850;2023-08-20T15:12:41;39.10;47.70
41437;DHT22;27178;49.460;10.850;2023-08-20T15:15:11;39.00;46.60
41437;DHT22;27178;49.460;10.850;2023-08-20T15:17:42;39.00;47.10
41437;DHT22;27178;49.460;10.850;2023-08-20T15:20:11;38.90;47.60
41437;DHT22;27178;49.460;10.850;2023-08-20T15:22:40;38.70;46.70
41437;DHT22;27178;49.460;10.850;2023-08-20T15:25:08;38.60;47.70
41437;DHT22;27178;49.460;10.850;2023-08-20T15:27:39;38.60;47.50
41437;DHT22;27178;49.460;10.850;2023-08-20T15:30:08;38.60;47.90
41437;DHT22;27178;49.460;10.850;2023-08-20T15:32:38;38.50;48.10
41437;DHT22;27178;49.460;10.850;2023-08-20T15:35:07;38.50;48.10
41437;DHT22;27178;49.460;10.850;2023-08-20T15:37:36;38.50;48.30
41437;DHT22;27178;49.460;10.850;2023-08-20T15:40:06;38.50;48.40